»·PEaware :: N982YR KVUO-KEUG

N982YR :: KVUO-KEUG

FLIGHT INFORMATION

Flight Status: Arrived
Operator: Privately registered:
United States
More flights under this callsign
Pilot: Anonymous 15639 (15639)
Aircraft: CESSNA 172 SKYHAWK
(C172)
More flights by this aircraft type
Origin: KVUO Pearson
United States
Destination: KEUG Mahlon Sweet
United States
More flights between these airports :: More routes between these airports
Route: +
File this flight plan on PilotEdge
Remarks:
Altitude:
(Current/Filed)
6,500ft
Speed:
(Current/Filed)
0kts
Departed: 29-Aug-18 08:28 AM
Arrived: 29-Aug-18 09:16 AM
Distance/Time
Traveled:
93nm/0:48
Distance/Time
To Go:
Arrived

Flight Plot

Page will automatically refresh every two minutes.

Flight plan parsing failed; only flown route is shown


Map Options




Map Legend


Flown Route
Filed Route
Departure Airport
Arrival Airport
Navaid (VOR, NDB)
Fix

Horizontal Profiles

Position Reports

Time Latitude Longitude Heading Altitude Ground
Speed
29-Aug-18 08:28 45.613117 -122.788443 181 1605ft 110kts
29-Aug-18 08:29 45.586495 -122.793713 193 2339ft 95kts
29-Aug-18 08:30 45.560352 -122.802186 190 2875ft 97kts
29-Aug-18 08:31 45.533528 -122.809776 195 3367ft 100kts
29-Aug-18 08:32 45.506189 -122.817641 194 3802ft 102kts
29-Aug-18 08:33 45.478544 -122.826468 193 4256ft 102kts
29-Aug-18 08:34 45.450746 -122.834998 191 4700ft 103kts
29-Aug-18 08:35 45.423054 -122.842198 191 5133ft 101kts
29-Aug-18 08:36 45.395258 -122.849150 191 5528ft 102kts
29-Aug-18 08:37 45.367183 -122.855896 191 5908ft 103kts
29-Aug-18 08:38 45.338926 -122.862411 191 6270ft 103kts
29-Aug-18 08:39 45.309724 -122.868927 191 6499ft 115kts
29-Aug-18 08:40 45.276851 -122.876505 191 6500ft 121kts
29-Aug-18 08:41 45.243676 -122.884164 191 6500ft 121kts
29-Aug-18 08:42 45.210399 -122.891842 191 6500ft 121kts
29-Aug-18 08:43 45.177044 -122.899524 191 6495ft 122kts
29-Aug-18 08:44 45.143808 -122.908838 194 6481ft 121kts
29-Aug-18 08:45 45.110880 -122.919012 194 6480ft 121kts
29-Aug-18 08:46 45.077795 -122.929300 193 6478ft 122kts
29-Aug-18 08:47 45.044388 -122.939702 192 6477ft 123kts
29-Aug-18 08:48 45.010953 -122.950120 191 6474ft 119kts
29-Aug-18 08:49 44.980010 -122.959713 192 6472ft 110kts
29-Aug-18 08:50 44.950262 -122.968930 193 6471ft 109kts
29-Aug-18 08:51 44.920525 -122.978154 193 6471ft 109kts
29-Aug-18 08:52 44.890869 -122.987332 193 6473ft 109kts
29-Aug-18 08:53 44.861187 -122.996473 193 6473ft 109kts
29-Aug-18 08:54 44.831313 -123.005687 193 6473ft 110kts
29-Aug-18 08:55 44.801506 -123.014886 193 6472ft 110kts
29-Aug-18 08:56 44.771685 -123.024093 192 6474ft 110kts
29-Aug-18 08:57 44.741767 -123.033322 192 6476ft 110kts
29-Aug-18 08:58 44.710781 -123.042872 191 6479ft 119kts
29-Aug-18 08:59 44.678013 -123.052958 192 6481ft 121kts
29-Aug-18 09:00 44.645160 -123.063060 192 6485ft 120kts
29-Aug-18 09:01 44.612666 -123.073041 192 6487ft 119kts
29-Aug-18 09:02 44.580146 -123.083017 193 6488ft 119kts
29-Aug-18 09:03 44.547898 -123.092899 193 6489ft 119kts
29-Aug-18 09:04 44.515576 -123.102791 193 6490ft 118kts
29-Aug-18 09:05 44.483348 -123.112643 193 6490ft 118kts
29-Aug-18 09:06 44.451160 -123.122465 193 6492ft 118kts
29-Aug-18 09:07 44.418388 -123.132542 194 6183ft 125kts
29-Aug-18 09:08 44.383718 -123.143231 194 5584ft 128kts
29-Aug-18 09:09 44.349361 -123.153753 195 4982ft 124kts
29-Aug-18 09:10 44.315950 -123.163948 194 4380ft 122kts
29-Aug-18 09:11 44.283129 -123.173937 194 3777ft 119kts
29-Aug-18 09:12 44.252551 -123.188986 207 3134ft 114kts
29-Aug-18 09:13 44.224220 -123.208335 207 2430ft 112kts
29-Aug-18 09:14 44.194721 -123.220017 182 1749ft 110kts
29-Aug-18 09:15 44.166174 -123.219617 182 1215ft 87kts
29-Aug-18 09:16 44.144155 -123.219283 181 593ft 69kts
29-Aug-18 09:17 44.128742 -123.219051 180 378ft 35kts
29-Aug-18 09:18 44.124747 -123.217265 145 378ft 6kts
29-Aug-18 09:19 44.121256 -123.214427 151 378ft 13kts
29-Aug-18 09:20 44.121045 -123.212889 267 378ft 0kts
29-Aug-18 09:21 44.121045 -123.212889 267 378ft 0kts
29-Aug-18 09:22 44.121045 -123.212889 267 378ft 0kts
29-Aug-18 09:23 44.121045 -123.212889 267 378ft 0kts
29-Aug-18 09:24 44.121045 -123.212889 267 378ft 0kts
29-Aug-18 09:25 44.121045 -123.212889 267 378ft 0kts
29-Aug-18 09:26 44.121045 -123.212889 267 378ft 0kts

Navigation Log

Ident Type
Flight plan parsing failed, navigation log unavailable